Sommer S — WDG3830 — position and weather

sailwx.info

Track history (hours):
 
Tides and Currents Weather Stations Pressure Air Temp Water Temp Dewpoint Dewpoint Depression Visibility Wind Speed Wind Dir Waves Ship Positions

Sommer S

Owner: Shaver Transportation Company, Portland, OR. More information available from US FCC via Universal Licensing System and Coast Guard Vessel Documentation Center.

Last reported at 2017-Jun-24 11:59 UTC. Time now 2017-Jun-24 12:08 UTC.
Position N 46°05' W 122°56'.

Length 25 m; draft 16.5 m.

Type: Tug. MMSI: 367530080.

Date/timePositionNaut miles runAvg speedWind from/ knotsBaromVisibWave heightAir tempDewpointWater temp
2017-Jun-24 11:59N 46°05' W 122°56'0 0.0
2017-Jun-24 11:31N 46°05' W 122°56'0 0.0
2017-Jun-24 11:00N 46°05' W 122°56'0 0.0
2017-Jun-24 10:31N 46°05' W 122°56'0 0.0
2017-Jun-24 10:00N 46°05' W 122°56'0 0.0
2017-Jun-24 09:30N 46°05' W 122°56'0 0.0
2017-Jun-24 09:00N 46°05' W 122°56'0 0.0
2017-Jun-24 08:30N 46°05' W 122°56'0 0.0
2017-Jun-24 08:00N 46°05' W 122°56'0 0.0
2017-Jun-24 07:31N 46°05' W 122°56'0 0.0
2017-Jun-24 07:00N 46°05' W 122°56'0 0.0
2017-Jun-24 06:31N 46°05' W 122°56'0 0.0
2017-Jun-24 06:00N 46°05' W 122°56'0 0.0
2017-Jun-24 05:30N 46°05' W 122°56'0 0.0
2017-Jun-24 05:01N 46°05' W 122°56'2 3.2
2017-Jun-24 04:30N 46°06' W 122°58'1 2.4
2017-Jun-24 04:00N 46°06' W 122°56'0 0.0
2017-Jun-24 03:31N 46°06' W 122°56'1 1.0
2017-Jun-24 03:00N 46°05' W 122°56'0 0.0
2017-Jun-24 02:30N 46°05' W 122°56'0 0.0
2017-Jun-24 02:00N 46°05' W 122°56'0 0.0
2017-Jun-24 01:30N 46°05' W 122°56'5 9.2
2017-Jun-24 01:00N 46°02' W 122°52'5 9.2
2017-Jun-24 00:30N 46°05' W 122°56'0 0.0
2017-Jun-24 00:00N 46°05' W 122°56'0 0.0
2017-Jun-23 23:30N 46°05' W 122°56'0 0.0
2017-Jun-23 23:00N 46°05' W 122°56'0 0.0
2017-Jun-23 22:30N 46°05' W 122°56'0 0.0
2017-Jun-23 22:01N 46°05' W 122°56'0 0.0
2017-Jun-23 21:31N 46°05' W 122°56'0 0.0
2017-Jun-23 21:00N 46°05' W 122°56'1 2.4
2017-Jun-23 20:30N 46°05' W 122°54'2 4.8
2017-Jun-23 20:00N 46°03' W 122°53'0 0.5
2017-Jun-23 19:30N 46°03' W 122°53'1 2.1
2017-Jun-23 19:00N 46°02' W 122°52'0 0.3
2017-Jun-23 18:30N 46°02' W 122°52'0 0.0
2017-Jun-23 18:00N 46°02' W 122°52'2 3.1
2017-Jun-23 17:30N 46°03' W 122°53'3 5.3
2017-Jun-23 17:00N 46°05' W 122°55'1 1.1
2017-Jun-23 16:29N 46°05' W 122°56'0 0.0
2017-Jun-23 16:00N 46°05' W 122°56'0 0.0
2017-Jun-23 15:30N 46°05' W 122°56'0 0.0
2017-Jun-23 15:00N 46°05' W 122°56'0 0.0
2017-Jun-23 14:01N 46°05' W 122°56'0 0.0
2017-Jun-23 13:30N 46°05' W 122°56'0 0.0
2017-Jun-23 13:00N 46°05' W 122°56'0 0.0
2017-Jun-23 12:30N 46°05' W 122°56'0 0.0
2017-Jun-23 12:00N 46°05' W 122°56'0 0.0
2017-Jun-23 11:30N 46°05' W 122°56'0 0.0
2017-Jun-23 11:00N 46°05' W 122°56'0 0.0
2017-Jun-23 10:30N 46°05' W 122°56'0 0.0
2017-Jun-23 10:00N 46°05' W 122°56'0 0.0
2017-Jun-23 09:30N 46°05' W 122°56'0 0.0
2017-Jun-23 09:00N 46°05' W 122°56'0 0.0
2017-Jun-23 08:30N 46°05' W 122°56'0 0.0
2017-Jun-23 08:00N 46°05' W 122°56'0 0.0
2017-Jun-23 07:30N 46°05' W 122°56'0 0.0
2017-Jun-23 07:01N 46°05' W 122°56'0 0.0
2017-Jun-23 06:30N 46°05' W 122°56'0 0.0
2017-Jun-23 06:00N 46°05' W 122°56'0 0.0
2017-Jun-23 05:30N 46°05' W 122°56'0 0.0
2017-Jun-23 05:00N 46°05' W 122°56'0 0.0
2017-Jun-23 04:30N 46°05' W 122°56'0 0.0
2017-Jun-23 04:00N 46°05' W 122°56'0 0.0
2017-Jun-23 03:30N 46°05' W 122°56'0 0.0
2017-Jun-23 03:01N 46°05' W 122°56'0 0.0
2017-Jun-23 02:30N 46°05' W 122°56'0 0.0
2017-Jun-23 02:00N 46°05' W 122°56'0 0.0
2017-Jun-23 01:30N 46°05' W 122°56'0 0.0
2017-Jun-23 01:00N 46°05' W 122°56'0 0.0
2017-Jun-23 00:30N 46°05' W 122°56'0 0.0
2017-Jun-23 00:00N 46°05' W 122°56'0 0.0
2017-Jun-22 23:30N 46°05' W 122°56'0 0.0
2017-Jun-22 23:00N 46°05' W 122°56'1 1.8
2017-Jun-22 22:30N 46°06' W 122°57'1 1.8
2017-Jun-22 22:00N 46°05' W 122°56'1 1.4
2017-Jun-22 21:30N 46°06' W 122°57'1 1.8
2017-Jun-22 21:00N 46°06' W 122°58'0 0.0
2017-Jun-22 20:30N 46°06' W 122°58'2 3.2
2017-Jun-22 20:00N 46°05' W 122°56'0 0.0
2017-Jun-22 19:30N 46°05' W 122°56'0 0.0
2017-Jun-22 19:00N 46°05' W 122°56'0 0.0
2017-Jun-22 18:30N 46°05' W 122°56'0 0.9
2017-Jun-22 18:00N 46°05' W 122°55'1 1.6
2017-Jun-22 17:30N 46°06' W 122°56'1 1.6
2017-Jun-22 17:00N 46°05' W 122°55'0 0.9
2017-Jun-22 16:31N 46°05' W 122°56'0 0.0
2017-Jun-22 16:00N 46°05' W 122°56'0 0.0
2017-Jun-22 15:30N 46°05' W 122°56'1 1.1
2017-Jun-22 15:00N 46°06' W 122°56'0 0.0
2017-Jun-22 14:00N 46°06' W 122°56'1 2.0
2017-Jun-22 13:30N 46°06' W 122°58'1 1.9
2017-Jun-22 13:00N 46°06' W 122°56'0 0.2
2017-Jun-22 12:31N 46°06' W 122°56'0 0.3
2017-Jun-22 12:00N 46°06' W 122°56'0 0.3
2017-Jun-22 11:30N 46°06' W 122°56'0 0.0
2017-Jun-22 11:00N 46°06' W 122°56'0 0.0
2017-Jun-22 10:30N 46°06' W 122°56'2 4.4
2017-Jun-22 10:00N 46°05' W 122°54'612.2
2017-Jun-22 09:30N 45°59' W 122°51'612.6
2017-Jun-22 09:00N 45°53' W 122°48'713.1
2017-Jun-22 08:30N 45°47' W 122°46'713.0
2017-Jun-22 08:00N 45°40' W 122°46'1 1.8
2017-Jun-22 07:30N 45°39' W 122°45'1 1.1
2017-Jun-22 07:00N 45°39' W 122°45'1 1.1
2017-Jun-22 06:31N 45°39' W 122°45'0 0.1
2017-Jun-22 06:00N 45°39' W 122°45'0 0.0
2017-Jun-22 05:31N 45°39' W 122°45'0 0.0
2017-Jun-22 04:59N 45°39' W 122°45'2 3.7
2017-Jun-22 04:31N 45°38' W 122°43'0 0.2
2017-Jun-22 04:01N 45°38' W 122°43'2 3.2
2017-Jun-22 03:31N 45°39' W 122°45'3 6.3
2017-Jun-22 03:00N 45°36' W 122°47'0 0.5
2017-Jun-22 02:30N 45°36' W 122°47'0 0.5
2017-Jun-22 02:00N 45°36' W 122°47'0 0.0
2017-Jun-22 01:31N 45°36' W 122°47'0 0.0
2017-Jun-22 01:00N 45°36' W 122°47'0 0.0
2017-Jun-22 00:31N 45°36' W 122°47'0 0.0
2017-Jun-22 00:00N 45°36' W 122°47'2 4.3
2017-Jun-21 23:31N 45°38' W 122°47'2 3.3
2017-Jun-21 23:00N 45°39' W 122°45'0 0.2
2017-Jun-21 22:30N 45°39' W 122°45'1 1.0
2017-Jun-21 22:00N 45°39' W 122°45'0 0.1
2017-Jun-21 21:30N 45°39' W 122°45'0 0.5
2017-Jun-21 21:00N 45°39' W 122°45'0 0.1
2017-Jun-21 20:31N 45°39' W 122°45'3 6.5
2017-Jun-21 20:01N 45°42' W 122°46'24 1.0
2017-Jun-20 19:55N 46°05' W 122°56'0 0.0
2017-Jun-20 19:30N 46°05' W 122°56'0 0.0
2017-Jun-20 19:00N 46°05' W 122°56'0 0.0
2017-Jun-20 18:30N 46°05' W 122°56'0 0.0
2017-Jun-20 18:00N 46°05' W 122°56'0 0.0
2017-Jun-20 17:30N 46°05' W 122°56'0 0.0
2017-Jun-20 17:00N 46°05' W 122°56'0 0.0
2017-Jun-20 16:31N 46°05' W 122°56'0 0.0
2017-Jun-20 16:00N 46°05' W 122°56'0 0.0
2017-Jun-20 15:30N 46°05' W 122°56'0 0.0
2017-Jun-20 15:00N 46°05' W 122°56'0 0.0
2017-Jun-20 14:00N 46°05' W 122°56'0 0.0
2017-Jun-20 13:30N 46°05' W 122°56'1 2.9
2017-Jun-20 13:00N 46°05' W 122°54'4 7.8
2017-Jun-20 12:30N 46°01' W 122°52'0 0.1
2017-Jun-20 12:00N 46°01' W 122°52'0 0.0
2017-Jun-20 11:30N 46°01' W 122°52'1 1.2
2017-Jun-20 11:00N 46°02' W 122°52'0 0.0
2017-Jun-20 10:30N 46°02' W 122°52'0 0.0
2017-Jun-20 10:00N 46°02' W 122°52'0 0.0
2017-Jun-20 09:30N 46°02' W 122°52'0 0.0
2017-Jun-20 09:00N 46°02' W 122°52'0 0.9
2017-Jun-20 08:30N 46°01' W 122°52'611.5
2017-Jun-20 08:00N 45°56' W 122°48'612.0
2017-Jun-20 07:30N 45°50' W 122°47'612.2
2017-Jun-20 07:01N 45°44' W 122°46'611.5
2017-Jun-20 06:30N 45°38' W 122°47'4 7.9
2017-Jun-20 06:00N 45°35' W 122°45'1 2.6
2017-Jun-20 05:30N 45°34' W 122°44'0 0.0
2017-Jun-20 05:00N 45°34' W 122°44'0 0.0
2017-Jun-20 04:30N 45°34' W 122°44'0 0.0
2017-Jun-20 04:01N 45°34' W 122°44'0 0.0
2017-Jun-20 03:30N 45°34' W 122°44'0 0.0
2017-Jun-20 03:00N 45°34' W 122°44'2 3.1
2017-Jun-20 02:30N 45°35' W 122°45'5 8.9
2017-Jun-20 01:59N 45°39' W 122°46'4 8.7
2017-Jun-20 01:30N 45°44' W 122°46'4 8.7
2017-Jun-20 01:00N 45°48' W 122°47'4 8.4
2017-Jun-20 00:30N 45°52' W 122°47'4 8.0
2017-Jun-20 00:00N 45°56' W 122°48'4 8.5
2017-Jun-19 23:30N 45°60' W 122°51'4 8.3
2017-Jun-19 23:00N 46°04' W 122°53'3 5.4
2017-Jun-19 22:30N 46°05' W 122°56'1 1.2
2017-Jun-19 22:00N 46°06' W 122°56'0 0.0
2017-Jun-19 21:30N 46°06' W 122°56'1 1.3
2017-Jun-19 21:01N 46°05' W 122°56'1 2.1
2017-Jun-19 20:30N 46°06' W 122°57'1 2.2
2017-Jun-19 20:00N 46°07' W 122°58'0 0.1
2017-Jun-19 19:31N 46°07' W 122°58'2 4.2
2017-Jun-19 19:01N 46°05' W 122°56'2 4.7
2017-Jun-19 18:30N 46°04' W 122°53'3 5.7
2017-Jun-19 18:00N 46°01' W 122°52'1 2.7
2017-Jun-19 17:30N 46°00' W 122°51'1 1.8
2017-Jun-19 17:01N 45°59' W 122°51'0 0.5
2017-Jun-19 16:30N 45°59' W 122°50'0 0.0
2017-Jun-19 16:00N 45°59' W 122°50'0 0.0
2017-Jun-19 15:30N 45°59' W 122°50'0 0.0
2017-Jun-19 15:00N 45°59' W 122°50'2 3.2
2017-Jun-19 14:30N 46°01' W 122°51'7 7.3
2017-Jun-19 13:30N 46°06' W 122°58'1 1.5
2017-Jun-19 13:01N 46°07' W 122°59'1 1.6
2017-Jun-19 12:31N 46°06' W 122°58'611.3
2017-Jun-19 12:00N 46°02' W 122°53'0 0.7
2017-Jun-19 11:30N 46°02' W 122°52'0 0.4
2017-Jun-19 11:01N 46°02' W 122°52'0 0.1
2017-Jun-19 10:31N 46°02' W 122°52'1 2.2
2017-Jun-19 10:01N 46°03' W 122°53'0 0.2
2017-Jun-19 09:31N 46°03' W 122°53'1 2.3
2017-Jun-19 09:00N 46°02' W 122°53'0 0.1
2017-Jun-19 08:31N 46°02' W 122°52'0 0.5
2017-Jun-19 08:00N 46°02' W 122°52'0 0.0
2017-Jun-19 07:30N 46°02' W 122°52'1 2.3
2017-Jun-19 07:00N 46°01' W 122°51'612.0
2017-Jun-19 06:31N 45°55' W 122°49'612.5
2017-Jun-19 06:00N 45°49' W 122°48'612.9
2017-Jun-19 05:30N 45°42' W 122°46'4 8.5
2017-Jun-19 05:00N 45°38' W 122°44'1 2.2
2017-Jun-19 04:30N 45°39' W 122°45'3 5.8
2017-Jun-19 04:00N 45°36' W 122°47'4 8.4
2017-Jun-19 03:30N 45°33' W 122°42'2 3.0
2017-Jun-19 02:59N 45°32' W 122°41'0 0.1
2017-Jun-19 02:30N 45°32' W 122°41'2 3.5
2017-Jun-19 01:59N 45°33' W 122°43'0 0.3
2017-Jun-19 01:30N 45°33' W 122°43'0 0.1
2017-Jun-19 01:01N 45°33' W 122°43'3 5.7
2017-Jun-19 00:30N 45°35' W 122°46'3 6.3
2017-Jun-19 00:00N 45°38' W 122°47'0 0.0
2017-Jun-18 23:30N 45°38' W 122°47'0 0.1
2017-Jun-18 23:00N 45°38' W 122°47'0 0.0
2017-Jun-18 22:30N 45°38' W 122°47'0 0.0
2017-Jun-18 22:00N 45°38' W 122°47'0 0.0
2017-Jun-18 21:30N 45°38' W 122°47'0 0.0
2017-Jun-18 21:00N 45°38' W 122°47'0 0.0
2017-Jun-18 20:31N 45°38' W 122°47'0 0.0
2017-Jun-18 20:00N 45°38' W 122°47'0 0.0
2017-Jun-18 19:30N 45°38' W 122°47'1 2.9
2017-Jun-18 19:00N 45°37' W 122°47'2 3.3
2017-Jun-18 18:30N 45°39' W 122°46'0 0.5
2017-Jun-18 18:00N 45°39' W 122°46'0 0.4
2017-Jun-18 17:30N 45°39' W 122°46'4 7.5
2017-Jun-18 17:00N 45°35' W 122°46'2 4.7
2017-Jun-18 16:30N 45°34' W 122°44'0 0.0
2017-Jun-18 16:00N 45°34' W 122°44'2 3.3
2017-Jun-18 15:30N 45°35' W 122°45'1 2.5
2017-Jun-18 15:00N 45°36' W 122°47'2 2.2
2017-Jun-18 14:00N 45°34' W 122°44'0 0.4
2017-Jun-18 13:30N 45°34' W 122°44'3 5.1
2017-Jun-18 13:01N 45°36' W 122°47'1 1.9
2017-Jun-18 12:30N 45°37' W 122°47'0 0.1
2017-Jun-18 12:00N 45°37' W 122°47'0 0.0
2017-Jun-18 11:30N 45°37' W 122°47'0 0.1
2017-Jun-18 11:00N 45°37' W 122°47'3 5.6
2017-Jun-18 10:30N 45°39' W 122°45'1 2.4
2017-Jun-18 10:00N 45°38' W 122°43'0 0.2
2017-Jun-18 09:30N 45°38' W 122°43'0 0.1
2017-Jun-18 09:00N 45°38' W 122°43'1 1.3
2017-Jun-18 08:30N 45°38' W 122°42'1 1.8
2017-Jun-18 08:00N 45°38' W 122°43'1 1.9
2017-Jun-18 07:30N 45°39' W 122°45'0 0.0
2017-Jun-18 07:00N 45°39' W 122°45'0 0.0
2017-Jun-18 06:30N 45°39' W 122°45'0 0.0
2017-Jun-18 06:00N 45°39' W 122°45'0 0.0
2017-Jun-18 05:30N 45°39' W 122°45'0 0.0
2017-Jun-18 05:00N 45°39' W 122°45'0 0.0
2017-Jun-18 04:30N 45°39' W 122°45'0 0.0
2017-Jun-18 04:00N 45°39' W 122°45'0 0.0
2017-Jun-18 03:30N 45°39' W 122°45'0 0.0
2017-Jun-18 02:55N 45°39' W 122°45'0 0.0
2017-Jun-18 02:30N 45°39' W 122°45'0 0.0
2017-Jun-18 02:00N 45°39' W 122°45'0 0.3
2017-Jun-18 01:30N 45°39' W 122°45'0 0.3
2017-Jun-18 01:00N 45°39' W 122°45'1 1.4
2017-Jun-18 00:30N 45°39' W 122°45'1 2.4
2017-Jun-18 00:00N 45°38' W 122°47'0 0.1
2017-Jun-17 23:30N 45°38' W 122°47'1 2.4
2017-Jun-17 23:00N 45°39' W 122°45'2 4.2
2017-Jun-17 22:30N 45°38' W 122°43'2 3.7
2017-Jun-17 22:00N 45°39' W 122°45'0 0.5
2017-Jun-17 21:30N 45°39' W 122°45'0 0.0
2017-Jun-17 21:00N 45°39' W 122°45'0 0.0
2017-Jun-17 20:30N 45°39' W 122°45'0 0.0
2017-Jun-17 20:00N 45°39' W 122°45'0 0.0
2017-Jun-17 19:30N 45°39' W 122°45'1 1.1
2017-Jun-17 19:00N 45°39' W 122°45'4 8.2
2017-Jun-17 18:30N 45°43' W 122°46'5 9.0
2017-Jun-17 18:00N 45°48' W 122°47'4 8.0
2017-Jun-17 17:30N 45°52' W 122°47'3 6.5
2017-Jun-17 17:01N 45°55' W 122°49'4 7.3
2017-Jun-17 16:31N 45°58' W 122°50'5 9.0
2017-Jun-17 16:00N 46°02' W 122°53'4 8.2
2017-Jun-17 15:31N 46°06' W 122°56'0 0.4
2017-Jun-17 15:00N 46°05' W 122°56'1 1.3
2017-Jun-17 14:00N 46°06' W 122°57'1 1.3
2017-Jun-17 13:30N 46°06' W 122°58'1 2.8
2017-Jun-17 13:00N 46°06' W 122°56'510.8
2017-Jun-17 12:30N 46°01' W 122°52'0 0.1
2017-Jun-17 12:00N 46°01' W 122°52'0 0.0
2017-Jun-17 11:30N 46°01' W 122°52'0 0.0
2017-Jun-17 11:01N 46°01' W 122°52'0 0.0
2017-Jun-17 10:30N 46°01' W 122°52'0 0.0
2017-Jun-17 10:00N 46°01' W 122°52'0 0.0
2017-Jun-17 09:31N 46°01' W 122°52'0 0.0
2017-Jun-17 09:00N 46°01' W 122°52'0 0.0
2017-Jun-17 08:30N 46°01' W 122°52'0 0.0
2017-Jun-17 08:00N 46°01' W 122°52'0 0.0
2017-Jun-17 07:31N 46°01' W 122°52'0 0.0
2017-Jun-17 07:00N 46°01' W 122°52'0 0.0
2017-Jun-17 06:30N 46°01' W 122°52'1 1.0
2017-Jun-17 06:00N 46°02' W 122°52'4 7.5
2017-Jun-17 05:30N 46°05' W 122°55'1 1.3
2017-Jun-17 05:00N 46°05' W 122°55'0 0.0
2017-Jun-17 04:30N 46°05' W 122°55'1 1.7
2017-Jun-17 04:01N 46°06' W 122°56'1 1.4
2017-Jun-17 03:30N 46°06' W 122°57'1 1.4
2017-Jun-17 03:00N 46°06' W 122°56'0 0.0
2017-Jun-17 02:30N 46°06' W 122°56'1 1.0
2017-Jun-17 02:00N 46°05' W 122°56'0 0.0
2017-Jun-17 01:30N 46°05' W 122°56'0 0.0
2017-Jun-17 01:00N 46°05' W 122°56'0 0.0
2017-Jun-17 00:30N 46°05' W 122°56'0 0.0
2017-Jun-17 00:00N 46°05' W 122°56'0 0.0
2017-Jun-16 23:30N 46°05' W 122°56'0 0.0
2017-Jun-16 23:00N 46°05' W 122°56'0 0.4
2017-Jun-16 22:30N 46°06' W 122°56'4 8.6
2017-Jun-16 22:00N 46°02' W 122°53'3 6.6
2017-Jun-16 21:31N 45°59' W 122°50'0 0.4
2017-Jun-16 21:00N 45°59' W 122°50'0 0.5
2017-Jun-16 20:31N 45°59' W 122°50'0 0.1
2017-Jun-16 20:00N 45°59' W 122°50'0 0.0
2017-Jun-16 19:30N 45°59' W 122°50'0 0.4
2017-Jun-16 19:00N 45°59' W 122°50'0 0.0
2017-Jun-16 18:30N 45°59' W 122°50'0 0.0
2017-Jun-16 18:00N 45°59' W 122°50'0 0.0
2017-Jun-16 17:30N 45°59' W 122°50'0 0.0
2017-Jun-16 17:01N 45°59' W 122°50'0 0.0
2017-Jun-16 16:31N 45°59' W 122°50'0 0.0
2017-Jun-16 16:00N 45°59' W 122°50'0 0.0
2017-Jun-16 15:31N 45°59' W 122°50'0 0.0
2017-Jun-16 15:01N 45°59' W 122°50'0 0.0
2017-Jun-16 14:30N 45°59' W 122°50'0 0.0
2017-Jun-16 13:31N 45°59' W 122°50'0 0.0
2017-Jun-16 13:01N 45°59' W 122°50'0 0.0
2017-Jun-16 12:31N 45°59' W 122°50'0 0.2
2017-Jun-16 12:01N 45°59' W 122°50'0 0.3
2017-Jun-16 11:30N 45°59' W 122°50'0 0.3
2017-Jun-16 11:01N 45°59' W 122°50'0 0.4
2017-Jun-16 10:31N 45°59' W 122°50'0 0.6
2017-Jun-16 10:01N 45°59' W 122°50'0 0.0
2017-Jun-16 09:31N 45°59' W 122°50'0 0.1
2017-Jun-16 09:01N 45°59' W 122°50'0 0.1
2017-Jun-16 08:31N 45°59' W 122°50'0 0.5
2017-Jun-16 08:01N 45°59' W 122°50'0 0.2
2017-Jun-16 07:31N 45°59' W 122°50'0 0.4
2017-Jun-16 07:01N 45°59' W 122°50'0 0.0
2017-Jun-16 06:31N 45°59' W 122°50'0 0.0
2017-Jun-16 06:01N 45°59' W 122°50'0 0.0
2017-Jun-16 05:30N 45°59' W 122°50'0 0.0
2017-Jun-16 05:01N 45°59' W 122°50'3 5.6
2017-Jun-16 04:30N 46°02' W 122°52'4 8.3
2017-Jun-16 04:01N 46°05' W 122°55'3 6.2
2017-Jun-16 03:30N 46°07' W 122°59'5 9.5
2017-Jun-16 03:01N 46°10' W 123°04'5 9.3
2017-Jun-16 02:29N 46°11' W 123°11'5 9.7
2017-Jun-16 02:01N 46°09' W 123°17'5 9.8
2017-Jun-16 01:31N 46°09' W 123°24'5 9.2
2017-Jun-16 01:00N 46°14' W 123°26'5 9.1
2017-Jun-16 00:30N 46°16' W 123°32'611.3
2017-Jun-16 00:00N 46°15' W 123°40'612.2
2017-Jun-15 23:31N 46°13' W 123°47'3 6.2
2017-Jun-15 23:01N 46°11' W 123°52'0 0.1
2017-Jun-15 22:31N 46°11' W 123°52'0 0.3
2017-Jun-15 22:01N 46°11' W 123°52'0 0.0
2017-Jun-15 21:31N 46°11' W 123°52'0 0.0
2017-Jun-15 21:01N 46°11' W 123°52'0 0.0
2017-Jun-15 20:31N 46°11' W 123°52'0 0.0
2017-Jun-15 20:01N 46°11' W 123°52'0 0.0
2017-Jun-15 19:31N 46°11' W 123°52'0 0.0
2017-Jun-15 19:01N 46°11' W 123°52'0 0.0
2017-Jun-15 18:31N 46°11' W 123°52'0 0.0
2017-Jun-15 18:00N 46°11' W 123°52'0 0.0
2017-Jun-15 17:31N 46°11' W 123°52'0 0.0
2017-Jun-15 17:01N 46°11' W 123°52'0 0.0
2017-Jun-15 16:31N 46°11' W 123°52'0 0.0
2017-Jun-15 16:01N 46°11' W 123°52'0 0.3
2017-Jun-15 15:31N 46°11' W 123°52'0 0.1
2017-Jun-15 15:01N 46°11' W 123°52'2 1.7
2017-Jun-15 14:00N 46°11' W 123°54'2 3.3
2017-Jun-15 13:31N 46°11' W 123°52'0 0.0
2017-Jun-15 13:00N 46°11' W 123°52'0 0.0
2017-Jun-15 12:31N 46°11' W 123°52'0 0.0
2017-Jun-15 12:01N 46°11' W 123°52'510.3
2017-Jun-15 11:30N 46°13' W 123°45'611.5
2017-Jun-15 11:01N 46°15' W 123°37'611.8
2017-Jun-15 10:31N 46°16' W 123°28'612.3
2017-Jun-15 10:00N 46°10' W 123°25'612.5
2017-Jun-15 09:31N 46°09' W 123°17'714.0
2017-Jun-15 09:01N 46°11' W 123°07'714.4
2017-Jun-15 08:31N 46°07' W 122°59'612.9
2017-Jun-15 08:01N 46°02' W 122°53'713.5
2017-Jun-15 07:30N 45°56' W 122°48'713.9
2017-Jun-15 07:00N 45°49' W 122°48'713.3
2017-Jun-15 06:30N 45°42' W 122°46'4 7.5
2017-Jun-15 06:00N 45°39' W 122°45'2 3.2
2017-Jun-15 05:30N 45°38' W 122°47'4 8.0
2017-Jun-15 05:00N 45°35' W 122°45'1 2.1
2017-Jun-15 04:30N 45°34' W 122°44'0 0.1
2017-Jun-15 04:00N 45°34' W 122°44'0 0.0
2017-Jun-15 03:30N 45°34' W 122°44'0 0.0
2017-Jun-15 03:00N 45°34' W 122°44'0 0.0
2017-Jun-15 02:30N 45°34' W 122°44'1 1.4
2017-Jun-15 02:00N 45°34' W 122°44'4 8.2
2017-Jun-15 01:30N 45°38' W 122°47'2 2.8
2017-Jun-15 00:52N 45°39' W 122°45'0 0.0
2017-Jun-15 00:30N 45°39' W 122°45'0 0.0
2017-Jun-15 00:00N 45°39' W 122°45'0 0.0
2017-Jun-14 23:30N 45°39' W 122°45'2 4.3
2017-Jun-14 23:00N 45°38' W 122°42'3 5.3
2017-Jun-14 22:30N 45°37' W 122°39'0 0.2
2017-Jun-14 22:00N 45°37' W 122°39'0 0.1
2017-Jun-14 21:30N 45°37' W 122°39'0 0.0
2017-Jun-14 21:00N 45°37' W 122°39'0 0.0
2017-Jun-14 20:30N 45°37' W 122°39'0 0.0
2017-Jun-14 20:00N 45°37' W 122°39'0 0.0
2017-Jun-14 19:30N 45°37' W 122°39'0 0.0
2017-Jun-14 19:00N 45°37' W 122°39'0 0.0
2017-Jun-14 18:30N 45°37' W 122°39'0 0.0
2017-Jun-14 18:00N 45°37' W 122°39'0 0.0
2017-Jun-14 17:30N 45°37' W 122°39'0 0.0
2017-Jun-14 17:00N 45°37' W 122°39'0 0.0
2017-Jun-14 16:30N 45°37' W 122°39'0 0.0
2017-Jun-14 16:00N 45°37' W 122°39'0 0.0
2017-Jun-14 15:30N 45°37' W 122°39'0 0.0
2017-Jun-14 15:00N 45°37' W 122°39'0 0.0
2017-Jun-14 14:30N 45°37' W 122°39'0 0.0
2017-Jun-14 13:30N 45°37' W 122°39'0 0.0
2017-Jun-14 13:00N 45°37' W 122°39'0 0.0
2017-Jun-14 12:30N 45°37' W 122°39'0 0.0
2017-Jun-14 12:00N 45°37' W 122°39'  
Track history (hours):
 
Tides and Currents Weather Stations Pressure Air Temp Water Temp Dewpoint Dewpoint Depression Visibility Wind Speed Wind Dir Waves Ship Positions

Sommer S

Owner: Shaver Transportation Company, Portland, OR. More information available from US FCC via Universal Licensing System and Coast Guard Vessel Documentation Center.

Last reported at 2017-Jun-24 11:59 UTC. Time now 2017-Jun-24 12:08 UTC.
Position N 46°05' W 122°56'.

Length 25 m; draft 16.5 m.

Type: Tug. MMSI: 367530080.

Date/timePositionNaut miles runAvg speedWind from/ knotsBaromVisibWave heightAir tempDewpointWater temp
2017-Jun-24 11:59N 46°05' W 122°56'0 0.0
2017-Jun-24 11:31N 46°05' W 122°56'0 0.0
2017-Jun-24 11:00N 46°05' W 122°56'0 0.0
2017-Jun-24 10:31N 46°05' W 122°56'0 0.0
2017-Jun-24 10:00N 46°05' W 122°56'0 0.0
2017-Jun-24 09:30N 46°05' W 122°56'0 0.0
2017-Jun-24 09:00N 46°05' W 122°56'0 0.0
2017-Jun-24 08:30N 46°05' W 122°56'0 0.0
2017-Jun-24 08:00N 46°05' W 122°56'0 0.0
2017-Jun-24 07:31N 46°05' W 122°56'0 0.0
2017-Jun-24 07:00N 46°05' W 122°56'0 0.0
2017-Jun-24 06:31N 46°05' W 122°56'0 0.0
2017-Jun-24 06:00N 46°05' W 122°56'0 0.0
2017-Jun-24 05:30N 46°05' W 122°56'0 0.0
2017-Jun-24 05:01N 46°05' W 122°56'2 3.2
2017-Jun-24 04:30N 46°06' W 122°58'1 2.4
2017-Jun-24 04:00N 46°06' W 122°56'0 0.0
2017-Jun-24 03:31N 46°06' W 122°56'1 1.0
2017-Jun-24 03:00N 46°05' W 122°56'0 0.0
2017-Jun-24 02:30N 46°05' W 122°56'0 0.0
2017-Jun-24 02:00N 46°05' W 122°56'0 0.0
2017-Jun-24 01:30N 46°05' W 122°56'5 9.2
2017-Jun-24 01:00N 46°02' W 122°52'5 9.2
2017-Jun-24 00:30N 46°05' W 122°56'0 0.0
2017-Jun-24 00:00N 46°05' W 122°56'0 0.0
2017-Jun-23 23:30N 46°05' W 122°56'0 0.0
2017-Jun-23 23:00N 46°05' W 122°56'0 0.0
2017-Jun-23 22:30N 46°05' W 122°56'0 0.0
2017-Jun-23 22:01N 46°05' W 122°56'0 0.0
2017-Jun-23 21:31N 46°05' W 122°56'0 0.0
2017-Jun-23 21:00N 46°05' W 122°56'1 2.4
2017-Jun-23 20:30N 46°05' W 122°54'2 4.8
2017-Jun-23 20:00N 46°03' W 122°53'0 0.5
2017-Jun-23 19:30N 46°03' W 122°53'1 2.1
2017-Jun-23 19:00N 46°02' W 122°52'0 0.3
2017-Jun-23 18:30N 46°02' W 122°52'0 0.0
2017-Jun-23 18:00N 46°02' W 122°52'2 3.1
2017-Jun-23 17:30N 46°03' W 122°53'3 5.3
2017-Jun-23 17:00N 46°05' W 122°55'1 1.1
2017-Jun-23 16:29N 46°05' W 122°56'0 0.0
2017-Jun-23 16:00N 46°05' W 122°56'0 0.0
2017-Jun-23 15:30N 46°05' W 122°56'0 0.0
2017-Jun-23 15:00N 46°05' W 122°56'0 0.0
2017-Jun-23 14:01N 46°05' W 122°56'0 0.0
2017-Jun-23 13:30N 46°05' W 122°56'0 0.0
2017-Jun-23 13:00N 46°05' W 122°56'0 0.0
2017-Jun-23 12:30N 46°05' W 122°56'0 0.0
2017-Jun-23 12:00N 46°05' W 122°56'0 0.0
2017-Jun-23 11:30N 46°05' W 122°56'0 0.0
2017-Jun-23 11:00N 46°05' W 122°56'0 0.0
2017-Jun-23 10:30N 46°05' W 122°56'0 0.0
2017-Jun-23 10:00N 46°05' W 122°56'0 0.0
2017-Jun-23 09:30N 46°05' W 122°56'0 0.0
2017-Jun-23 09:00N 46°05' W 122°56'0 0.0
2017-Jun-23 08:30N 46°05' W 122°56'0 0.0
2017-Jun-23 08:00N 46°05' W 122°56'0 0.0
2017-Jun-23 07:30N 46°05' W 122°56'0 0.0
2017-Jun-23 07:01N 46°05' W 122°56'0 0.0
2017-Jun-23 06:30N 46°05' W 122°56'0 0.0
2017-Jun-23 06:00N 46°05' W 122°56'0 0.0
2017-Jun-23 05:30N 46°05' W 122°56'0 0.0
2017-Jun-23 05:00N 46°05' W 122°56'0 0.0
2017-Jun-23 04:30N 46°05' W 122°56'0 0.0
2017-Jun-23 04:00N 46°05' W 122°56'0 0.0
2017-Jun-23 03:30N 46°05' W 122°56'0 0.0
2017-Jun-23 03:01N 46°05' W 122°56'0 0.0
2017-Jun-23 02:30N 46°05' W 122°56'0 0.0
2017-Jun-23 02:00N 46°05' W 122°56'0 0.0
2017-Jun-23 01:30N 46°05' W 122°56'0 0.0
2017-Jun-23 01:00N 46°05' W 122°56'0 0.0
2017-Jun-23 00:30N 46°05' W 122°56'0 0.0
2017-Jun-23 00:00N 46°05' W 122°56'0 0.0
2017-Jun-22 23:30N 46°05' W 122°56'0 0.0
2017-Jun-22 23:00N 46°05' W 122°56'1 1.8
2017-Jun-22 22:30N 46°06' W 122°57'1 1.8
2017-Jun-22 22:00N 46°05' W 122°56'1 1.4
2017-Jun-22 21:30N 46°06' W 122°57'1 1.8
2017-Jun-22 21:00N 46°06' W 122°58'0 0.0
2017-Jun-22 20:30N 46°06' W 122°58'2 3.2
2017-Jun-22 20:00N 46°05' W 122°56'0 0.0
2017-Jun-22 19:30N 46°05' W 122°56'0 0.0
2017-Jun-22 19:00N 46°05' W 122°56'0 0.0
2017-Jun-22 18:30N 46°05' W 122°56'0 0.9
2017-Jun-22 18:00N 46°05' W 122°55'1 1.6
2017-Jun-22 17:30N 46°06' W 122°56'1 1.6
2017-Jun-22 17:00N 46°05' W 122°55'0 0.9
2017-Jun-22 16:31N 46°05' W 122°56'0 0.0
2017-Jun-22 16:00N 46°05' W 122°56'0 0.0
2017-Jun-22 15:30N 46°05' W 122°56'1 1.1
2017-Jun-22 15:00N 46°06' W 122°56'0 0.0
2017-Jun-22 14:00N 46°06' W 122°56'1 2.0
2017-Jun-22 13:30N 46°06' W 122°58'1 1.9
2017-Jun-22 13:00N 46°06' W 122°56'0 0.2
2017-Jun-22 12:31N 46°06' W 122°56'0 0.3
2017-Jun-22 12:00N 46°06' W 122°56'0 0.3
2017-Jun-22 11:30N 46°06' W 122°56'0 0.0
2017-Jun-22 11:00N 46°06' W 122°56'0 0.0
2017-Jun-22 10:30N 46°06' W 122°56'2 4.4
2017-Jun-22 10:00N 46°05' W 122°54'612.2
2017-Jun-22 09:30N 45°59' W 122°51'612.6
2017-Jun-22 09:00N 45°53' W 122°48'713.1
2017-Jun-22 08:30N 45°47' W 122°46'713.0
2017-Jun-22 08:00N 45°40' W 122°46'1 1.8
2017-Jun-22 07:30N 45°39' W 122°45'1 1.1
2017-Jun-22 07:00N 45°39' W 122°45'1 1.1
2017-Jun-22 06:31N 45°39' W 122°45'0 0.1
2017-Jun-22 06:00N 45°39' W 122°45'0 0.0
2017-Jun-22 05:31N 45°39' W 122°45'0 0.0
2017-Jun-22 04:59N 45°39' W 122°45'2 3.7
2017-Jun-22 04:31N 45°38' W 122°43'0 0.2
2017-Jun-22 04:01N 45°38' W 122°43'2 3.2
2017-Jun-22 03:31N 45°39' W 122°45'3 6.3
2017-Jun-22 03:00N 45°36' W 122°47'0 0.5
2017-Jun-22 02:30N 45°36' W 122°47'0 0.5
2017-Jun-22 02:00N 45°36' W 122°47'0 0.0
2017-Jun-22 01:31N 45°36' W 122°47'0 0.0
2017-Jun-22 01:00N 45°36' W 122°47'0 0.0
2017-Jun-22 00:31N 45°36' W 122°47'0 0.0
2017-Jun-22 00:00N 45°36' W 122°47'2 4.3
2017-Jun-21 23:31N 45°38' W 122°47'2 3.3
2017-Jun-21 23:00N 45°39' W 122°45'0 0.2
2017-Jun-21 22:30N 45°39' W 122°45'1 1.0
2017-Jun-21 22:00N 45°39' W 122°45'0 0.1
2017-Jun-21 21:30N 45°39' W 122°45'0 0.5
2017-Jun-21 21:00N 45°39' W 122°45'0 0.1
2017-Jun-21 20:31N 45°39' W 122°45'3 6.5
2017-Jun-21 20:01N 45°42' W 122°46'24 1.0
2017-Jun-20 19:55N 46°05' W 122°56'0 0.0
2017-Jun-20 19:30N 46°05' W 122°56'0 0.0
2017-Jun-20 19:00N 46°05' W 122°56'0 0.0
2017-Jun-20 18:30N 46°05' W 122°56'0 0.0
2017-Jun-20 18:00N 46°05' W 122°56'0 0.0
2017-Jun-20 17:30N 46°05' W 122°56'0 0.0
2017-Jun-20 17:00N 46°05' W 122°56'0 0.0
2017-Jun-20 16:31N 46°05' W 122°56'0 0.0
2017-Jun-20 16:00N 46°05' W 122°56'0 0.0
2017-Jun-20 15:30N 46°05' W 122°56'0 0.0
2017-Jun-20 15:00N 46°05' W 122°56'0 0.0
2017-Jun-20 14:00N 46°05' W 122°56'0 0.0
2017-Jun-20 13:30N 46°05' W 122°56'1 2.9
2017-Jun-20 13:00N 46°05' W 122°54'4 7.8
2017-Jun-20 12:30N 46°01' W 122°52'0 0.1
2017-Jun-20 12:00N 46°01' W 122°52'0 0.0
2017-Jun-20 11:30N 46°01' W 122°52'1 1.2
2017-Jun-20 11:00N 46°02' W 122°52'0 0.0
2017-Jun-20 10:30N 46°02' W 122°52'0 0.0
2017-Jun-20 10:00N 46°02' W 122°52'0 0.0
2017-Jun-20 09:30N 46°02' W 122°52'0 0.0
2017-Jun-20 09:00N 46°02' W 122°52'0 0.9
2017-Jun-20 08:30N 46°01' W 122°52'611.5
2017-Jun-20 08:00N 45°56' W 122°48'612.0
2017-Jun-20 07:30N 45°50' W 122°47'612.2
2017-Jun-20 07:01N 45°44' W 122°46'611.5
2017-Jun-20 06:30N 45°38' W 122°47'4 7.9
2017-Jun-20 06:00N 45°35' W 122°45'1 2.6
2017-Jun-20 05:30N 45°34' W 122°44'0 0.0
2017-Jun-20 05:00N 45°34' W 122°44'0 0.0
2017-Jun-20 04:30N 45°34' W 122°44'0 0.0
2017-Jun-20 04:01N 45°34' W 122°44'0 0.0
2017-Jun-20 03:30N 45°34' W 122°44'0 0.0
2017-Jun-20 03:00N 45°34' W 122°44'2 3.1
2017-Jun-20 02:30N 45°35' W 122°45'5 8.9
2017-Jun-20 01:59N 45°39' W 122°46'4 8.7
2017-Jun-20 01:30N 45°44' W 122°46'4 8.7
2017-Jun-20 01:00N 45°48' W 122°47'4 8.4
2017-Jun-20 00:30N 45°52' W 122°47'4 8.0
2017-Jun-20 00:00N 45°56' W 122°48'4 8.5
2017-Jun-19 23:30N 45°60' W 122°51'4 8.3
2017-Jun-19 23:00N 46°04' W 122°53'3 5.4
2017-Jun-19 22:30N 46°05' W 122°56'1 1.2
2017-Jun-19 22:00N 46°06' W 122°56'0 0.0
2017-Jun-19 21:30N 46°06' W 122°56'1 1.3
2017-Jun-19 21:01N 46°05' W 122°56'1 2.1
2017-Jun-19 20:30N 46°06' W 122°57'1 2.2
2017-Jun-19 20:00N 46°07' W 122°58'0 0.1
2017-Jun-19 19:31N 46°07' W 122°58'2 4.2
2017-Jun-19 19:01N 46°05' W 122°56'2 4.7
2017-Jun-19 18:30N 46°04' W 122°53'3 5.7
2017-Jun-19 18:00N 46°01' W 122°52'1 2.7
2017-Jun-19 17:30N 46°00' W 122°51'1 1.8
2017-Jun-19 17:01N 45°59' W 122°51'0 0.5
2017-Jun-19 16:30N 45°59' W 122°50'0 0.0
2017-Jun-19 16:00N 45°59' W 122°50'0 0.0
2017-Jun-19 15:30N 45°59' W 122°50'0 0.0
2017-Jun-19 15:00N 45°59' W 122°50'2 3.2
2017-Jun-19 14:30N 46°01' W 122°51'7 7.3
2017-Jun-19 13:30N 46°06' W 122°58'1 1.5
2017-Jun-19 13:01N 46°07' W 122°59'1 1.6
2017-Jun-19 12:31N 46°06' W 122°58'611.3
2017-Jun-19 12:00N 46°02' W 122°53'0 0.7
2017-Jun-19 11:30N 46°02' W 122°52'0 0.4
2017-Jun-19 11:01N 46°02' W 122°52'0 0.1
2017-Jun-19 10:31N 46°02' W 122°52'1 2.2
2017-Jun-19 10:01N 46°03' W 122°53'0 0.2
2017-Jun-19 09:31N 46°03' W 122°53'1 2.3
2017-Jun-19 09:00N 46°02' W 122°53'0 0.1
2017-Jun-19 08:31N 46°02' W 122°52'0 0.5
2017-Jun-19 08:00N 46°02' W 122°52'0 0.0
2017-Jun-19 07:30N 46°02' W 122°52'1 2.3
2017-Jun-19 07:00N 46°01' W 122°51'612.0
2017-Jun-19 06:31N 45°55' W 122°49'612.5
2017-Jun-19 06:00N 45°49' W 122°48'612.9
2017-Jun-19 05:30N 45°42' W 122°46'4 8.5
2017-Jun-19 05:00N 45°38' W 122°44'1 2.2
2017-Jun-19 04:30N 45°39' W 122°45'3 5.8
2017-Jun-19 04:00N 45°36' W 122°47'4 8.4
2017-Jun-19 03:30N 45°33' W 122°42'2 3.0
2017-Jun-19 02:59N 45°32' W 122°41'0 0.1
2017-Jun-19 02:30N 45°32' W 122°41'2 3.5
2017-Jun-19 01:59N 45°33' W 122°43'0 0.3
2017-Jun-19 01:30N 45°33' W 122°43'0 0.1
2017-Jun-19 01:01N 45°33' W 122°43'3 5.7
2017-Jun-19 00:30N 45°35' W 122°46'3 6.3
2017-Jun-19 00:00N 45°38' W 122°47'0 0.0
2017-Jun-18 23:30N 45°38' W 122°47'0 0.1
2017-Jun-18 23:00N 45°38' W 122°47'0 0.0
2017-Jun-18 22:30N 45°38' W 122°47'0 0.0
2017-Jun-18 22:00N 45°38' W 122°47'0 0.0
2017-Jun-18 21:30N 45°38' W 122°47'0 0.0
2017-Jun-18 21:00N 45°38' W 122°47'0 0.0
2017-Jun-18 20:31N 45°38' W 122°47'0 0.0
2017-Jun-18 20:00N 45°38' W 122°47'0 0.0
2017-Jun-18 19:30N 45°38' W 122°47'1 2.9
2017-Jun-18 19:00N 45°37' W 122°47'2 3.3
2017-Jun-18 18:30N 45°39' W 122°46'0 0.5
2017-Jun-18 18:00N 45°39' W 122°46'0 0.4
2017-Jun-18 17:30N 45°39' W 122°46'4 7.5
2017-Jun-18 17:00N 45°35' W 122°46'2 4.7
2017-Jun-18 16:30N 45°34' W 122°44'0 0.0
2017-Jun-18 16:00N 45°34' W 122°44'2 3.3
2017-Jun-18 15:30N 45°35' W 122°45'1 2.5
2017-Jun-18 15:00N 45°36' W 122°47'2 2.2
2017-Jun-18 14:00N 45°34' W 122°44'0 0.4
2017-Jun-18 13:30N 45°34' W 122°44'3 5.1
2017-Jun-18 13:01N 45°36' W 122°47'1 1.9
2017-Jun-18 12:30N 45°37' W 122°47'0 0.1
2017-Jun-18 12:00N 45°37' W 122°47'0 0.0
2017-Jun-18 11:30N 45°37' W 122°47'0 0.1
2017-Jun-18 11:00N 45°37' W 122°47'3 5.6
2017-Jun-18 10:30N 45°39' W 122°45'1 2.4
2017-Jun-18 10:00N 45°38' W 122°43'0 0.2
2017-Jun-18 09:30N 45°38' W 122°43'0 0.1
2017-Jun-18 09:00N 45°38' W 122°43'1 1.3
2017-Jun-18 08:30N 45°38' W 122°42'1 1.8
2017-Jun-18 08:00N 45°38' W 122°43'1 1.9
2017-Jun-18 07:30N 45°39' W 122°45'0 0.0
2017-Jun-18 07:00N 45°39' W 122°45'0 0.0
2017-Jun-18 06:30N 45°39' W 122°45'0 0.0
2017-Jun-18 06:00N 45°39' W 122°45'0 0.0
2017-Jun-18 05:30N 45°39' W 122°45'0 0.0
2017-Jun-18 05:00N 45°39' W 122°45'0 0.0
2017-Jun-18 04:30N 45°39' W 122°45'0 0.0
2017-Jun-18 04:00N 45°39' W 122°45'0 0.0
2017-Jun-18 03:30N 45°39' W 122°45'0 0.0
2017-Jun-18 02:55N 45°39' W 122°45'0 0.0
2017-Jun-18 02:30N 45°39' W 122°45'0 0.0
2017-Jun-18 02:00N 45°39' W 122°45'0 0.3
2017-Jun-18 01:30N 45°39' W 122°45'0 0.3
2017-Jun-18 01:00N 45°39' W 122°45'1 1.4
2017-Jun-18 00:30N 45°39' W 122°45'1 2.4
2017-Jun-18 00:00N 45°38' W 122°47'0 0.1
2017-Jun-17 23:30N 45°38' W 122°47'1 2.4
2017-Jun-17 23:00N 45°39' W 122°45'2 4.2
2017-Jun-17 22:30N 45°38' W 122°43'2 3.7
2017-Jun-17 22:00N 45°39' W 122°45'0 0.5
2017-Jun-17 21:30N 45°39' W 122°45'0 0.0
2017-Jun-17 21:00N 45°39' W 122°45'0 0.0
2017-Jun-17 20:30N 45°39' W 122°45'0 0.0
2017-Jun-17 20:00N 45°39' W 122°45'0 0.0
2017-Jun-17 19:30N 45°39' W 122°45'1 1.1
2017-Jun-17 19:00N 45°39' W 122°45'4 8.2
2017-Jun-17 18:30N 45°43' W 122°46'5 9.0
2017-Jun-17 18:00N 45°48' W 122°47'4 8.0
2017-Jun-17 17:30N 45°52' W 122°47'3 6.5
2017-Jun-17 17:01N 45°55' W 122°49'4 7.3
2017-Jun-17 16:31N 45°58' W 122°50'5 9.0
2017-Jun-17 16:00N 46°02' W 122°53'4 8.2
2017-Jun-17 15:31N 46°06' W 122°56'0 0.4
2017-Jun-17 15:00N 46°05' W 122°56'1 1.3
2017-Jun-17 14:00N 46°06' W 122°57'1 1.3
2017-Jun-17 13:30N 46°06' W 122°58'1 2.8
2017-Jun-17 13:00N 46°06' W 122°56'510.8
2017-Jun-17 12:30N 46°01' W 122°52'0 0.1
2017-Jun-17 12:00N 46°01' W 122°52'0 0.0
2017-Jun-17 11:30N 46°01' W 122°52'0 0.0
2017-Jun-17 11:01N 46°01' W 122°52'0 0.0
2017-Jun-17 10:30N 46°01' W 122°52'0 0.0
2017-Jun-17 10:00N 46°01' W 122°52'0 0.0
2017-Jun-17 09:31N 46°01' W 122°52'0 0.0
2017-Jun-17 09:00N 46°01' W 122°52'0 0.0
2017-Jun-17 08:30N 46°01' W 122°52'0 0.0
2017-Jun-17 08:00N 46°01' W 122°52'0 0.0
2017-Jun-17 07:31N 46°01' W 122°52'0 0.0
2017-Jun-17 07:00N 46°01' W 122°52'0 0.0
2017-Jun-17 06:30N 46°01' W 122°52'1 1.0
2017-Jun-17 06:00N 46°02' W 122°52'4 7.5
2017-Jun-17 05:30N 46°05' W 122°55'1 1.3
2017-Jun-17 05:00N 46°05' W 122°55'0 0.0
2017-Jun-17 04:30N 46°05' W 122°55'1 1.7
2017-Jun-17 04:01N 46°06' W 122°56'1 1.4
2017-Jun-17 03:30N 46°06' W 122°57'1 1.4
2017-Jun-17 03:00N 46°06' W 122°56'0 0.0
2017-Jun-17 02:30N 46°06' W 122°56'1 1.0
2017-Jun-17 02:00N 46°05' W 122°56'0 0.0
2017-Jun-17 01:30N 46°05' W 122°56'0 0.0
2017-Jun-17 01:00N 46°05' W 122°56'0 0.0
2017-Jun-17 00:30N 46°05' W 122°56'0 0.0
2017-Jun-17 00:00N 46°05' W 122°56'0 0.0
2017-Jun-16 23:30N 46°05' W 122°56'0 0.0
2017-Jun-16 23:00N 46°05' W 122°56'0 0.4
2017-Jun-16 22:30N 46°06' W 122°56'4 8.6
2017-Jun-16 22:00N 46°02' W 122°53'3 6.6
2017-Jun-16 21:31N 45°59' W 122°50'0 0.4
2017-Jun-16 21:00N 45°59' W 122°50'0 0.5
2017-Jun-16 20:31N 45°59' W 122°50'0 0.1
2017-Jun-16 20:00N 45°59' W 122°50'0 0.0
2017-Jun-16 19:30N 45°59' W 122°50'0 0.4
2017-Jun-16 19:00N 45°59' W 122°50'0 0.0
2017-Jun-16 18:30N 45°59' W 122°50'0 0.0
2017-Jun-16 18:00N 45°59' W 122°50'0 0.0
2017-Jun-16 17:30N 45°59' W 122°50'0 0.0
2017-Jun-16 17:01N 45°59' W 122°50'0 0.0
2017-Jun-16 16:31N 45°59' W 122°50'0 0.0
2017-Jun-16 16:00N 45°59' W 122°50'0 0.0
2017-Jun-16 15:31N 45°59' W 122°50'0 0.0
2017-Jun-16 15:01N 45°59' W 122°50'0 0.0
2017-Jun-16 14:30N 45°59' W 122°50'0 0.0
2017-Jun-16 13:31N 45°59' W 122°50'0 0.0
2017-Jun-16 13:01N 45°59' W 122°50'0 0.0
2017-Jun-16 12:31N 45°59' W 122°50'0 0.2
2017-Jun-16 12:01N 45°59' W 122°50'0 0.3
2017-Jun-16 11:30N 45°59' W 122°50'0 0.3
2017-Jun-16 11:01N 45°59' W 122°50'0 0.4
2017-Jun-16 10:31N 45°59' W 122°50'0 0.6
2017-Jun-16 10:01N 45°59' W 122°50'0 0.0
2017-Jun-16 09:31N 45°59' W 122°50'0 0.1
2017-Jun-16 09:01N 45°59' W 122°50'0 0.1
2017-Jun-16 08:31N 45°59' W 122°50'0 0.5
2017-Jun-16 08:01N 45°59' W 122°50'0 0.2
2017-Jun-16 07:31N 45°59' W 122°50'0 0.4
2017-Jun-16 07:01N 45°59' W 122°50'0 0.0
2017-Jun-16 06:31N 45°59' W 122°50'0 0.0
2017-Jun-16 06:01N 45°59' W 122°50'0 0.0
2017-Jun-16 05:30N 45°59' W 122°50'0 0.0
2017-Jun-16 05:01N 45°59' W 122°50'3 5.6
2017-Jun-16 04:30N 46°02' W 122°52'4 8.3
2017-Jun-16 04:01N 46°05' W 122°55'3 6.2
2017-Jun-16 03:30N 46°07' W 122°59'5 9.5
2017-Jun-16 03:01N 46°10' W 123°04'5 9.3
2017-Jun-16 02:29N 46°11' W 123°11'5 9.7
2017-Jun-16 02:01N 46°09' W 123°17'5 9.8
2017-Jun-16 01:31N 46°09' W 123°24'5 9.2
2017-Jun-16 01:00N 46°14' W 123°26'5 9.1
2017-Jun-16 00:30N 46°16' W 123°32'611.3
2017-Jun-16 00:00N 46°15' W 123°40'612.2
2017-Jun-15 23:31N 46°13' W 123°47'3 6.2
2017-Jun-15 23:01N 46°11' W 123°52'0 0.1
2017-Jun-15 22:31N 46°11' W 123°52'0 0.3
2017-Jun-15 22:01N 46°11' W 123°52'0 0.0
2017-Jun-15 21:31N 46°11' W 123°52'0 0.0
2017-Jun-15 21:01N 46°11' W 123°52'0 0.0
2017-Jun-15 20:31N 46°11' W 123°52'0 0.0
2017-Jun-15 20:01N 46°11' W 123°52'0 0.0
2017-Jun-15 19:31N 46°11' W 123°52'0 0.0
2017-Jun-15 19:01N 46°11' W 123°52'0 0.0
2017-Jun-15 18:31N 46°11' W 123°52'0 0.0
2017-Jun-15 18:00N 46°11' W 123°52'0 0.0
2017-Jun-15 17:31N 46°11' W 123°52'0 0.0
2017-Jun-15 17:01N 46°11' W 123°52'0 0.0
2017-Jun-15 16:31N 46°11' W 123°52'0 0.0
2017-Jun-15 16:01N 46°11' W 123°52'0 0.3
2017-Jun-15 15:31N 46°11' W 123°52'0 0.1
2017-Jun-15 15:01N 46°11' W 123°52'2 1.7
2017-Jun-15 14:00N 46°11' W 123°54'2 3.3
2017-Jun-15 13:31N 46°11' W 123°52'0 0.0
2017-Jun-15 13:00N 46°11' W 123°52'0 0.0
2017-Jun-15 12:31N 46°11' W 123°52'0 0.0
2017-Jun-15 12:01N 46°11' W 123°52'510.3
2017-Jun-15 11:30N 46°13' W 123°45'611.5
2017-Jun-15 11:01N 46°15' W 123°37'611.8
2017-Jun-15 10:31N 46°16' W 123°28'612.3
2017-Jun-15 10:00N 46°10' W 123°25'612.5
2017-Jun-15 09:31N 46°09' W 123°17'714.0
2017-Jun-15 09:01N 46°11' W 123°07'714.4
2017-Jun-15 08:31N 46°07' W 122°59'612.9
2017-Jun-15 08:01N 46°02' W 122°53'713.5
2017-Jun-15 07:30N 45°56' W 122°48'713.9
2017-Jun-15 07:00N 45°49' W 122°48'713.3
2017-Jun-15 06:30N 45°42' W 122°46'4 7.5
2017-Jun-15 06:00N 45°39' W 122°45'2 3.2
2017-Jun-15 05:30N 45°38' W 122°47'4 8.0
2017-Jun-15 05:00N 45°35' W 122°45'1 2.1
2017-Jun-15 04:30N 45°34' W 122°44'0 0.1
2017-Jun-15 04:00N 45°34' W 122°44'0 0.0
2017-Jun-15 03:30N 45°34' W 122°44'0 0.0
2017-Jun-15 03:00N 45°34' W 122°44'0 0.0
2017-Jun-15 02:30N 45°34' W 122°44'1 1.4
2017-Jun-15 02:00N 45°34' W 122°44'4 8.2
2017-Jun-15 01:30N 45°38' W 122°47'2 2.8
2017-Jun-15 00:52N 45°39' W 122°45'0 0.0
2017-Jun-15 00:30N 45°39' W 122°45'0 0.0
2017-Jun-15 00:00N 45°39' W 122°45'0 0.0
2017-Jun-14 23:30N 45°39' W 122°45'2 4.3
2017-Jun-14 23:00N 45°38' W 122°42'3 5.3
2017-Jun-14 22:30N 45°37' W 122°39'0 0.2
2017-Jun-14 22:00N 45°37' W 122°39'0 0.1
2017-Jun-14 21:30N 45°37' W 122°39'0 0.0
2017-Jun-14 21:00N 45°37' W 122°39'0 0.0
2017-Jun-14 20:30N 45°37' W 122°39'0 0.0
2017-Jun-14 20:00N 45°37' W 122°39'0 0.0
2017-Jun-14 19:30N 45°37' W 122°39'0 0.0
2017-Jun-14 19:00N 45°37' W 122°39'0 0.0
2017-Jun-14 18:30N 45°37' W 122°39'0 0.0
2017-Jun-14 18:00N 45°37' W 122°39'0 0.0
2017-Jun-14 17:30N 45°37' W 122°39'0 0.0
2017-Jun-14 17:00N 45°37' W 122°39'0 0.0
2017-Jun-14 16:30N 45°37' W 122°39'0 0.0
2017-Jun-14 16:00N 45°37' W 122°39'0 0.0
2017-Jun-14 15:30N 45°37' W 122°39'0 0.0
2017-Jun-14 15:00N 45°37' W 122°39'0 0.0
2017-Jun-14 14:30N 45°37' W 122°39'0 0.0
2017-Jun-14 13:30N 45°37' W 122°39'0 0.0
2017-Jun-14 13:00N 45°37' W 122°39'0 0.0
2017-Jun-14 12:30N 45°37' W 122°39'0 0.0
2017-Jun-14 12:00N 45°37' W 122°39'  

Dump ship's entire track history